sensor_id;sensor_type;location;lat;lon;timestamp;P1;durP1;ratioP1;P2;durP2;ratioP2
59040;SDS011;44825;53.200;6.448;2023-07-22T00:01:13;12.00;;;4.90;;
59040;SDS011;44825;53.200;6.448;2023-07-22T00:03:39;8.98;;;4.63;;
59040;SDS011;44825;53.200;6.448;2023-07-22T00:06:06;9.73;;;4.93;;
59040;SDS011;44825;53.200;6.448;2023-07-22T00:08:33;12.05;;;4.90;;
59040;SDS011;44825;53.200;6.448;2023-07-22T00:10:59;11.70;;;5.20;;
59040;SDS011;44825;53.200;6.448;2023-07-22T00:13:25;9.55;;;4.50;;
59040;SDS011;44825;53.200;6.448;2023-07-22T00:15:54;10.23;;;5.30;;
59040;SDS011;44825;53.200;6.448;2023-07-22T00:18:20;9.48;;;4.22;;
59040;SDS011;44825;53.200;6.448;2023-07-22T00:20:46;9.48;;;3.92;;
59040;SDS011;44825;53.200;6.448;2023-07-22T00:23:12;9.55;;;3.97;;
59040;SDS011;44825;53.200;6.448;2023-07-22T00:25:40;7.97;;;4.03;;
59040;SDS011;44825;53.200;6.448;2023-07-22T00:28:06;10.15;;;4.25;;
59040;SDS011;44825;53.200;6.448;2023-07-22T00:30:32;8.07;;;4.15;;
59040;SDS011;44825;53.200;6.448;2023-07-22T00:32:59;14.38;;;4.63;;
59040;SDS011;44825;53.200;6.448;2023-07-22T00:35:26;9.85;;;4.30;;
59040;SDS011;44825;53.200;6.448;2023-07-22T00:37:52;9.68;;;4.55;;
59040;SDS011;44825;53.200;6.448;2023-07-22T00:40:18;7.32;;;3.65;;
59040;SDS011;44825;53.200;6.448;2023-07-22T00:42:44;8.95;;;4.35;;
59040;SDS011;44825;53.200;6.448;2023-07-22T00:45:10;8.85;;;4.43;;
59040;SDS011;44825;53.200;6.448;2023-07-22T00:47:37;8.75;;;4.28;;
59040;SDS011;44825;53.200;6.448;2023-07-22T00:50:04;7.78;;;4.07;;
59040;SDS011;44825;53.200;6.448;2023-07-22T00:52:31;7.38;;;3.78;;
59040;SDS011;44825;53.200;6.448;2023-07-22T00:54:57;9.43;;;4.13;;
59040;SDS011;44825;53.200;6.448;2023-07-22T00:57:24;10.30;;;3.85;;
59040;SDS011;44825;53.200;6.448;2023-07-22T00:59:50;12.02;;;4.38;;
59040;SDS011;44825;53.200;6.448;2023-07-22T01:02:16;8.80;;;4.43;;
59040;SDS011;44825;53.200;6.448;2023-07-22T01:04:42;10.68;;;4.68;;
59040;SDS011;44825;53.200;6.448;2023-07-22T01:07:08;8.55;;;4.25;;
59040;SDS011;44825;53.200;6.448;2023-07-22T01:09:38;12.77;;;4.57;;
59040;SDS011;44825;53.200;6.448;2023-07-22T01:12:05;9.20;;;4.32;;
59040;SDS011;44825;53.200;6.448;2023-07-22T01:14:34;11.50;;;4.22;;
59040;SDS011;44825;53.200;6.448;2023-07-22T01:17:05;9.27;;;4.28;;
59040;SDS011;44825;53.200;6.448;2023-07-22T01:19:31;10.52;;;3.88;;
59040;SDS011;44825;53.200;6.448;2023-07-22T01:22:02;11.25;;;4.70;;
59040;SDS011;44825;53.200;6.448;2023-07-22T01:24:29;8.35;;;4.40;;
59040;SDS011;44825;53.200;6.448;2023-07-22T01:26:56;8.65;;;4.18;;
59040;SDS011;44825;53.200;6.448;2023-07-22T01:29:22;8.00;;;3.83;;
59040;SDS011;44825;53.200;6.448;2023-07-22T01:31:50;9.23;;;4.78;;
59040;SDS011;44825;53.200;6.448;2023-07-22T01:34:16;9.38;;;4.13;;
59040;SDS011;44825;53.200;6.448;2023-07-22T01:36:43;12.32;;;4.55;;
59040;SDS011;44825;53.200;6.448;2023-07-22T01:39:09;8.38;;;3.97;;
59040;SDS011;44825;53.200;6.448;2023-07-22T01:41:36;8.32;;;4.22;;
59040;SDS011;44825;53.200;6.448;2023-07-22T01:44:02;7.75;;;3.45;;
59040;SDS011;44825;53.200;6.448;2023-07-22T01:46:28;9.30;;;3.80;;
59040;SDS011;44825;53.200;6.448;2023-07-22T01:48:57;11.60;;;5.15;;
59040;SDS011;44825;53.200;6.448;2023-07-22T01:51:23;8.32;;;4.13;;
59040;SDS011;44825;53.200;6.448;2023-07-22T01:53:50;8.07;;;4.10;;
59040;SDS011;44825;53.200;6.448;2023-07-22T01:56:16;7.32;;;3.47;;
59040;SDS011;44825;53.200;6.448;2023-07-22T01:58:42;7.25;;;3.40;;
59040;SDS011;44825;53.200;6.448;2023-07-22T02:01:08;7.57;;;3.70;;
59040;SDS011;44825;53.200;6.448;2023-07-22T02:03:35;7.38;;;3.45;;
59040;SDS011;44825;53.200;6.448;2023-07-22T02:06:02;9.27;;;3.60;;
59040;SDS011;44825;53.200;6.448;2023-07-22T02:08:28;7.60;;;3.90;;
59040;SDS011;44825;53.200;6.448;2023-07-22T02:10:54;9.60;;;3.40;;
59040;SDS011;44825;53.200;6.448;2023-07-22T02:13:20;8.02;;;3.72;;
59040;SDS011;44825;53.200;6.448;2023-07-22T02:15:46;8.75;;;3.65;;
59040;SDS011;44825;53.200;6.448;2023-07-22T02:18:12;7.88;;;3.58;;
59040;SDS011;44825;53.200;6.448;2023-07-22T02:20:42;7.25;;;3.50;;
59040;SDS011;44825;53.200;6.448;2023-07-22T02:23:08;11.90;;;3.40;;
59040;SDS011;44825;53.200;6.448;2023-07-22T02:25:37;8.80;;;3.75;;
59040;SDS011;44825;53.200;6.448;2023-07-22T02:28:03;7.68;;;2.95;;
59040;SDS011;44825;53.200;6.448;2023-07-22T02:30:29;11.10;;;3.67;;
59040;SDS011;44825;53.200;6.448;2023-07-22T02:32:56;9.77;;;3.70;;
59040;SDS011;44825;53.200;6.448;2023-07-22T02:35:22;6.43;;;2.92;;
59040;SDS011;44825;53.200;6.448;2023-07-22T02:37:48;6.18;;;2.72;;
59040;SDS011;44825;53.200;6.448;2023-07-22T02:40:14;6.30;;;3.08;;
59040;SDS011;44825;53.200;6.448;2023-07-22T02:42:40;6.53;;;2.72;;
59040;SDS011;44825;53.200;6.448;2023-07-22T02:45:06;7.20;;;3.33;;
59040;SDS011;44825;53.200;6.448;2023-07-22T02:47:33;6.65;;;2.92;;
59040;SDS011;44825;53.200;6.448;2023-07-22T02:49:59;6.38;;;2.90;;
59040;SDS011;44825;53.200;6.448;2023-07-22T02:52:25;8.57;;;3.10;;
59040;SDS011;44825;53.200;6.448;2023-07-22T02:55:11;6.95;;;3.33;;
59040;SDS011;44825;53.200;6.448;2023-07-22T02:57:38;6.53;;;2.72;;
59040;SDS011;44825;53.200;6.448;2023-07-22T03:00:05;8.18;;;3.28;;
59040;SDS011;44825;53.200;6.448;2023-07-22T03:02:36;5.95;;;3.22;;
59040;SDS011;44825;53.200;6.448;2023-07-22T03:05:06;6.50;;;2.83;;
59040;SDS011;44825;53.200;6.448;2023-07-22T03:07:36;8.65;;;3.70;;
59040;SDS011;44825;53.200;6.448;2023-07-22T03:10:02;8.18;;;3.65;;
59040;SDS011;44825;53.200;6.448;2023-07-22T03:12:29;8.15;;;3.47;;
59040;SDS011;44825;53.200;6.448;2023-07-22T03:14:55;8.40;;;4.00;;
59040;SDS011;44825;53.200;6.448;2023-07-22T03:17:21;7.75;;;4.20;;
59040;SDS011;44825;53.200;6.448;2023-07-22T03:19:48;8.95;;;3.72;;
59040;SDS011;44825;53.200;6.448;2023-07-22T03:22:14;8.90;;;3.05;;
59040;SDS011;44825;53.200;6.448;2023-07-22T03:24:44;5.85;;;2.80;;
59040;SDS011;44825;53.200;6.448;2023-07-22T03:27:11;6.43;;;3.10;;
59040;SDS011;44825;53.200;6.448;2023-07-22T03:29:37;7.72;;;3.30;;
59040;SDS011;44825;53.200;6.448;2023-07-22T03:32:04;6.47;;;3.20;;
59040;SDS011;44825;53.200;6.448;2023-07-22T03:34:30;8.70;;;3.10;;
59040;SDS011;44825;53.200;6.448;2023-07-22T03:36:57;7.13;;;3.50;;
59040;SDS011;44825;53.200;6.448;2023-07-22T03:39:23;7.32;;;3.20;;
59040;SDS011;44825;53.200;6.448;2023-07-22T03:41:49;10.63;;;3.80;;
59040;SDS011;44825;53.200;6.448;2023-07-22T03:44:16;6.40;;;3.08;;
59040;SDS011;44825;53.200;6.448;2023-07-22T03:46:42;8.15;;;3.58;;
59040;SDS011;44825;53.200;6.448;2023-07-22T03:49:08;8.15;;;3.85;;
59040;SDS011;44825;53.200;6.448;2023-07-22T03:51:34;8.18;;;4.30;;
59040;SDS011;44825;53.200;6.448;2023-07-22T03:54:00;8.15;;;3.92;;
59040;SDS011;44825;53.200;6.448;2023-07-22T03:56:27;8.52;;;4.20;;
59040;SDS011;44825;53.200;6.448;2023-07-22T03:58:53;9.63;;;4.75;;
59040;SDS011;44825;53.200;6.448;2023-07-22T04:01:19;8.00;;;4.57;;
59040;SDS011;44825;53.200;6.448;2023-07-22T04:03:45;8.02;;;4.45;;
59040;SDS011;44825;53.200;6.448;2023-07-22T04:06:11;10.95;;;5.07;;
59040;SDS011;44825;53.200;6.448;2023-07-22T04:08:37;10.45;;;4.78;;
59040;SDS011;44825;53.200;6.448;2023-07-22T04:11:03;11.15;;;5.30;;
59040;SDS011;44825;53.200;6.448;2023-07-22T04:13:29;9.98;;;5.10;;
59040;SDS011;44825;53.200;6.448;2023-07-22T04:15:55;9.68;;;4.80;;
59040;SDS011;44825;53.200;6.448;2023-07-22T04:18:22;12.15;;;5.20;;
59040;SDS011;44825;53.200;6.448;2023-07-22T04:20:48;9.02;;;4.43;;
59040;SDS011;44825;53.200;6.448;2023-07-22T04:23:20;9.02;;;4.53;;
59040;SDS011;44825;53.200;6.448;2023-07-22T04:25:47;10.02;;;4.70;;
59040;SDS011;44825;53.200;6.448;2023-07-22T04:28:13;10.68;;;4.30;;
59040;SDS011;44825;53.200;6.448;2023-07-22T04:30:40;8.45;;;4.78;;
59040;SDS011;44825;53.200;6.448;2023-07-22T04:33:06;9.48;;;4.50;;
59040;SDS011;44825;53.200;6.448;2023-07-22T04:35:38;10.05;;;4.40;;
59040;SDS011;44825;53.200;6.448;2023-07-22T04:38:06;8.90;;;4.50;;
59040;SDS011;44825;53.200;6.448;2023-07-22T04:40:32;12.23;;;5.43;;
59040;SDS011;44825;53.200;6.448;2023-07-22T04:42:58;9.98;;;4.82;;
59040;SDS011;44825;53.200;6.448;2023-07-22T04:45:31;10.35;;;5.15;;
59040;SDS011;44825;53.200;6.448;2023-07-22T04:47:57;11.43;;;4.88;;
59040;SDS011;44825;53.200;6.448;2023-07-22T04:50:23;9.20;;;5.13;;
59040;SDS011;44825;53.200;6.448;2023-07-22T04:52:49;9.77;;;5.82;;
59040;SDS011;44825;53.200;6.448;2023-07-22T04:55:15;9.23;;;5.40;;
59040;SDS011;44825;53.200;6.448;2023-07-22T04:57:41;9.10;;;5.28;;
59040;SDS011;44825;53.200;6.448;2023-07-22T05:00:10;10.18;;;5.57;;
59040;SDS011;44825;53.200;6.448;2023-07-22T05:02:41;9.05;;;5.20;;
59040;SDS011;44825;53.200;6.448;2023-07-22T05:05:09;12.00;;;5.22;;
59040;SDS011;44825;53.200;6.448;2023-07-22T05:07:35;8.95;;;5.32;;
59040;SDS011;44825;53.200;6.448;2023-07-22T05:10:01;13.50;;;5.93;;
59040;SDS011;44825;53.200;6.448;2023-07-22T05:12:27;10.13;;;5.50;;
59040;SDS011;44825;53.200;6.448;2023-07-22T05:14:53;10.75;;;6.13;;
59040;SDS011;44825;53.200;6.448;2023-07-22T05:17:19;12.85;;;6.32;;
59040;SDS011;44825;53.200;6.448;2023-07-22T05:19:46;11.35;;;6.03;;
59040;SDS011;44825;53.200;6.448;2023-07-22T05:22:13;10.32;;;6.05;;
59040;SDS011;44825;53.200;6.448;2023-07-22T05:24:40;11.73;;;6.18;;
59040;SDS011;44825;53.200;6.448;2023-07-22T05:27:06;11.35;;;6.10;;
59040;SDS011;44825;53.200;6.448;2023-07-22T05:29:32;11.13;;;6.15;;
59040;SDS011;44825;53.200;6.448;2023-07-22T05:31:58;9.75;;;6.00;;
59040;SDS011;44825;53.200;6.448;2023-07-22T05:34:24;11.60;;;6.68;;
59040;SDS011;44825;53.200;6.448;2023-07-22T05:36:50;12.73;;;6.60;;
59040;SDS011;44825;53.200;6.448;2023-07-22T05:39:16;13.23;;;6.55;;
59040;SDS011;44825;53.200;6.448;2023-07-22T05:41:43;11.05;;;6.45;;
59040;SDS011;44825;53.200;6.448;2023-07-22T05:44:09;10.68;;;6.47;;
59040;SDS011;44825;53.200;6.448;2023-07-22T05:46:38;10.05;;;6.45;;
59040;SDS011;44825;53.200;6.448;2023-07-22T05:49:04;12.02;;;7.13;;
59040;SDS011;44825;53.200;6.448;2023-07-22T05:51:31;11.13;;;5.90;;
59040;SDS011;44825;53.200;6.448;2023-07-22T05:53:57;11.48;;;6.68;;
59040;SDS011;44825;53.200;6.448;2023-07-22T05:56:23;10.50;;;6.97;;
59040;SDS011;44825;53.200;6.448;2023-07-22T05:58:49;11.20;;;6.53;;
59040;SDS011;44825;53.200;6.448;2023-07-22T06:01:15;9.48;;;6.40;;
59040;SDS011;44825;53.200;6.448;2023-07-22T06:03:41;9.73;;;6.20;;
59040;SDS011;44825;53.200;6.448;2023-07-22T06:06:08;12.05;;;6.55;;
59040;SDS011;44825;53.200;6.448;2023-07-22T06:08:34;10.65;;;6.22;;
59040;SDS011;44825;53.200;6.448;2023-07-22T06:11:00;12.68;;;6.53;;
59040;SDS011;44825;53.200;6.448;2023-07-22T06:13:27;12.00;;;6.53;;
59040;SDS011;44825;53.200;6.448;2023-07-22T06:15:53;15.85;;;6.75;;
59040;SDS011;44825;53.200;6.448;2023-07-22T06:18:19;11.93;;;6.72;;
59040;SDS011;44825;53.200;6.448;2023-07-22T06:20:45;14.20;;;7.35;;
59040;SDS011;44825;53.200;6.448;2023-07-22T06:23:11;12.18;;;7.10;;
59040;SDS011;44825;53.200;6.448;2023-07-22T06:25:37;11.63;;;7.50;;
59040;SDS011;44825;53.200;6.448;2023-07-22T06:28:04;13.80;;;8.23;;
59040;SDS011;44825;53.200;6.448;2023-07-22T06:30:30;13.35;;;7.85;;
59040;SDS011;44825;53.200;6.448;2023-07-22T06:32:56;13.30;;;7.68;;
59040;SDS011;44825;53.200;6.448;2023-07-22T06:35:22;13.88;;;8.30;;
59040;SDS011;44825;53.200;6.448;2023-07-22T06:37:48;12.35;;;7.53;;
59040;SDS011;44825;53.200;6.448;2023-07-22T06:40:14;14.23;;;8.43;;
59040;SDS011;44825;53.200;6.448;2023-07-22T06:42:40;17.85;;;8.85;;
59040;SDS011;44825;53.200;6.448;2023-07-22T06:45:06;12.05;;;7.32;;
59040;SDS011;44825;53.200;6.448;2023-07-22T06:47:32;13.75;;;7.85;;
59040;SDS011;44825;53.200;6.448;2023-07-22T06:49:59;12.27;;;7.95;;
59040;SDS011;44825;53.200;6.448;2023-07-22T06:52:25;12.35;;;7.85;;
59040;SDS011;44825;53.200;6.448;2023-07-22T06:54:51;15.57;;;8.82;;
59040;SDS011;44825;53.200;6.448;2023-07-22T06:57:17;12.93;;;8.60;;
59040;SDS011;44825;53.200;6.448;2023-07-22T06:59:43;12.43;;;8.23;;
59040;SDS011;44825;53.200;6.448;2023-07-22T07:02:09;12.55;;;8.20;;
59040;SDS011;44825;53.200;6.448;2023-07-22T07:04:36;15.43;;;7.70;;
59040;SDS011;44825;53.200;6.448;2023-07-22T07:07:02;14.05;;;8.45;;
59040;SDS011;44825;53.200;6.448;2023-07-22T07:09:28;13.20;;;8.32;;
59040;SDS011;44825;53.200;6.448;2023-07-22T07:11:54;15.45;;;8.10;;
59040;SDS011;44825;53.200;6.448;2023-07-22T07:14:23;14.70;;;8.93;;
59040;SDS011;44825;53.200;6.448;2023-07-22T07:16:52;16.48;;;8.35;;
59040;SDS011;44825;53.200;6.448;2023-07-22T07:19:18;13.57;;;8.82;;
59040;SDS011;44825;53.200;6.448;2023-07-22T07:21:44;14.25;;;8.45;;
59040;SDS011;44825;53.200;6.448;2023-07-22T07:24:10;13.10;;;8.55;;
59040;SDS011;44825;53.200;6.448;2023-07-22T07:26:36;12.73;;;8.15;;
59040;SDS011;44825;53.200;6.448;2023-07-22T07:29:02;14.50;;;9.07;;
59040;SDS011;44825;53.200;6.448;2023-07-22T07:31:28;15.40;;;9.05;;
59040;SDS011;44825;53.200;6.448;2023-07-22T07:33:54;13.70;;;9.00;;
59040;SDS011;44825;53.200;6.448;2023-07-22T07:36:21;13.20;;;8.20;;
59040;SDS011;44825;53.200;6.448;2023-07-22T07:38:47;12.93;;;8.30;;
59040;SDS011;44825;53.200;6.448;2023-07-22T07:41:13;13.05;;;7.95;;
59040;SDS011;44825;53.200;6.448;2023-07-22T07:43:40;13.20;;;8.63;;
59040;SDS011;44825;53.200;6.448;2023-07-22T07:48:48;12.90;;;8.07;;
59040;SDS011;44825;53.200;6.448;2023-07-22T07:51:15;12.77;;;8.23;;
59040;SDS011;44825;53.200;6.448;2023-07-22T07:53:42;12.68;;;8.07;;
59040;SDS011;44825;53.200;6.448;2023-07-22T07:56:09;14.10;;;8.00;;
59040;SDS011;44825;53.200;6.448;2023-07-22T07:58:35;13.55;;;7.85;;
59040;SDS011;44825;53.200;6.448;2023-07-22T08:01:02;13.98;;;7.90;;
59040;SDS011;44825;53.200;6.448;2023-07-22T08:03:28;12.45;;;7.32;;
59040;SDS011;44825;53.200;6.448;2023-07-22T08:05:54;14.25;;;8.77;;
59040;SDS011;44825;53.200;6.448;2023-07-22T08:08:21;12.05;;;7.97;;
59040;SDS011;44825;53.200;6.448;2023-07-22T08:10:47;12.15;;;7.53;;
59040;SDS011;44825;53.200;6.448;2023-07-22T08:13:13;10.45;;;6.55;;
59040;SDS011;44825;53.200;6.448;2023-07-22T08:15:40;11.45;;;7.22;;
59040;SDS011;44825;53.200;6.448;2023-07-22T08:18:07;11.40;;;6.82;;
59040;SDS011;44825;53.200;6.448;2023-07-22T08:20:33;10.43;;;6.60;;
59040;SDS011;44825;53.200;6.448;2023-07-22T08:22:59;11.52;;;7.05;;
59040;SDS011;44825;53.200;6.448;2023-07-22T08:25:25;14.48;;;7.13;;
59040;SDS011;44825;53.200;6.448;2023-07-22T08:27:52;11.73;;;6.40;;
59040;SDS011;44825;53.200;6.448;2023-07-22T08:30:18;12.65;;;6.95;;
59040;SDS011;44825;53.200;6.448;2023-07-22T08:32:44;11.27;;;7.07;;
59040;SDS011;44825;53.200;6.448;2023-07-22T08:35:10;12.02;;;7.60;;
59040;SDS011;44825;53.200;6.448;2023-07-22T08:37:36;13.02;;;7.85;;
59040;SDS011;44825;53.200;6.448;2023-07-22T08:40:02;14.18;;;7.80;;
59040;SDS011;44825;53.200;6.448;2023-07-22T08:42:30;12.75;;;7.95;;
59040;SDS011;44825;53.200;6.448;2023-07-22T08:44:57;12.75;;;7.65;;
59040;SDS011;44825;53.200;6.448;2023-07-22T08:47:27;11.00;;;8.30;;
59040;SDS011;44825;53.200;6.448;2023-07-22T08:49:56;11.25;;;7.25;;
59040;SDS011;44825;53.200;6.448;2023-07-22T08:52:23;9.30;;;6.30;;
59040;SDS011;44825;53.200;6.448;2023-07-22T08:54:49;9.48;;;6.60;;
59040;SDS011;44825;53.200;6.448;2023-07-22T08:57:15;9.30;;;6.68;;
59040;SDS011;44825;53.200;6.448;2023-07-22T08:59:43;10.85;;;6.65;;
59040;SDS011;44825;53.200;6.448;2023-07-22T09:02:12;11.23;;;5.68;;
59040;SDS011;44825;53.200;6.448;2023-07-22T09:04:39;7.78;;;4.90;;
59040;SDS011;44825;53.200;6.448;2023-07-22T09:07:07;8.30;;;4.93;;
59040;SDS011;44825;53.200;6.448;2023-07-22T09:09:34;9.02;;;5.43;;
59040;SDS011;44825;53.200;6.448;2023-07-22T09:12:01;9.93;;;5.53;;
59040;SDS011;44825;53.200;6.448;2023-07-22T09:14:27;9.55;;;5.50;;
59040;SDS011;44825;53.200;6.448;2023-07-22T09:16:53;8.65;;;5.43;;
59040;SDS011;44825;53.200;6.448;2023-07-22T09:19:19;10.07;;;5.93;;
59040;SDS011;44825;53.200;6.448;2023-07-22T09:21:46;10.00;;;6.28;;
59040;SDS011;44825;53.200;6.448;2023-07-22T09:24:19;9.82;;;6.05;;
59040;SDS011;44825;53.200;6.448;2023-07-22T09:26:46;11.98;;;6.35;;
59040;SDS011;44825;53.200;6.448;2023-07-22T09:29:12;14.93;;;7.88;;
59040;SDS011;44825;53.200;6.448;2023-07-22T09:31:48;16.55;;;8.00;;
59040;SDS011;44825;53.200;6.448;2023-07-22T09:34:15;14.45;;;8.20;;
59040;SDS011;44825;53.200;6.448;2023-07-22T09:36:51;10.07;;;6.10;;
59040;SDS011;44825;53.200;6.448;2023-07-22T09:39:17;11.70;;;7.05;;
59040;SDS011;44825;53.200;6.448;2023-07-22T09:41:43;17.55;;;8.52;;
59040;SDS011;44825;53.200;6.448;2023-07-22T09:44:10;14.98;;;8.05;;
59040;SDS011;44825;53.200;6.448;2023-07-22T09:46:40;12.38;;;7.68;;
59040;SDS011;44825;53.200;6.448;2023-07-22T09:49:08;12.45;;;7.70;;
59040;SDS011;44825;53.200;6.448;2023-07-22T09:51:40;12.65;;;7.88;;
59040;SDS011;44825;53.200;6.448;2023-07-22T09:54:06;12.30;;;7.47;;
59040;SDS011;44825;53.200;6.448;2023-07-22T09:56:42;13.57;;;7.78;;
59040;SDS011;44825;53.200;6.448;2023-07-22T09:59:08;13.35;;;8.25;;
59040;SDS011;44825;53.200;6.448;2023-07-22T10:01:37;14.50;;;8.52;;
59040;SDS011;44825;53.200;6.448;2023-07-22T10:04:03;13.18;;;8.25;;
59040;SDS011;44825;53.200;6.448;2023-07-22T10:06:30;14.18;;;7.50;;
59040;SDS011;44825;53.200;6.448;2023-07-22T10:08:56;12.95;;;8.10;;
59040;SDS011;44825;53.200;6.448;2023-07-22T10:11:23;12.35;;;7.97;;
59040;SDS011;44825;53.200;6.448;2023-07-22T10:13:51;13.73;;;8.82;;
59040;SDS011;44825;53.200;6.448;2023-07-22T10:16:18;12.45;;;8.05;;
59040;SDS011;44825;53.200;6.448;2023-07-22T10:18:45;12.82;;;8.13;;
59040;SDS011;44825;53.200;6.448;2023-07-22T10:21:12;12.05;;;7.85;;
59040;SDS011;44825;53.200;6.448;2023-07-22T10:23:38;13.65;;;8.68;;
59040;SDS011;44825;53.200;6.448;2023-07-22T10:26:04;11.93;;;7.47;;
59040;SDS011;44825;53.200;6.448;2023-07-22T10:28:31;12.35;;;7.88;;
59040;SDS011;44825;53.200;6.448;2023-07-22T10:30:57;14.48;;;7.85;;
59040;SDS011;44825;53.200;6.448;2023-07-22T10:33:24;11.68;;;7.85;;
59040;SDS011;44825;53.200;6.448;2023-07-22T10:36:06;11.02;;;6.50;;
59040;SDS011;44825;53.200;6.448;2023-07-22T10:38:34;12.20;;;7.15;;
59040;SDS011;44825;53.200;6.448;2023-07-22T10:41:00;10.85;;;6.90;;
59040;SDS011;44825;53.200;6.448;2023-07-22T10:43:30;11.10;;;6.15;;
59040;SDS011;44825;53.200;6.448;2023-07-22T10:45:57;8.80;;;5.82;;
59040;SDS011;44825;53.200;6.448;2023-07-22T10:48:27;9.45;;;5.57;;
59040;SDS011;44825;53.200;6.448;2023-07-22T10:50:54;11.57;;;6.07;;
59040;SDS011;44825;53.200;6.448;2023-07-22T10:58:32;9.43;;;5.78;;
59040;SDS011;44825;53.200;6.448;2023-07-22T11:01:59;9.20;;;5.50;;
59040;SDS011;44825;53.200;6.448;2023-07-22T11:06:30;9.82;;;5.47;;
59040;SDS011;44825;53.200;6.448;2023-07-22T11:08:56;9.25;;;5.50;;
59040;SDS011;44825;53.200;6.448;2023-07-22T11:11:38;10.55;;;6.15;;
59040;SDS011;44825;53.200;6.448;2023-07-22T11:14:17;9.65;;;5.85;;
59040;SDS011;44825;53.200;6.448;2023-07-22T11:16:46;10.25;;;5.70;;
59040;SDS011;44825;53.200;6.448;2023-07-22T11:19:13;8.75;;;5.43;;
59040;SDS011;44825;53.200;6.448;2023-07-22T11:21:39;8.35;;;5.43;;
59040;SDS011;44825;53.200;6.448;2023-07-22T11:24:06;10.82;;;5.13;;
59040;SDS011;44825;53.200;6.448;2023-07-22T11:26:32;8.95;;;5.32;;
59040;SDS011;44825;53.200;6.448;2023-07-22T11:29:02;8.55;;;4.97;;
59040;SDS011;44825;53.200;6.448;2023-07-22T11:31:32;7.78;;;4.70;;
59040;SDS011;44825;53.200;6.448;2023-07-22T11:33:59;9.18;;;5.10;;
59040;SDS011;44825;53.200;6.448;2023-07-22T11:36:28;8.85;;;5.40;;
59040;SDS011;44825;53.200;6.448;2023-07-22T11:39:01;9.80;;;5.80;;
59040;SDS011;44825;53.200;6.448;2023-07-22T11:41:27;10.57;;;6.93;;
59040;SDS011;44825;53.200;6.448;2023-07-22T11:43:53;12.50;;;6.28;;
59040;SDS011;44825;53.200;6.448;2023-07-22T11:46:19;10.25;;;6.30;;
59040;SDS011;44825;53.200;6.448;2023-07-22T11:48:49;14.52;;;6.63;;
59040;SDS011;44825;53.200;6.448;2023-07-22T11:51:16;12.52;;;7.38;;
59040;SDS011;44825;53.200;6.448;2023-07-22T11:53:43;9.63;;;6.70;;
59040;SDS011;44825;53.200;6.448;2023-07-22T11:56:09;9.65;;;6.63;;
59040;SDS011;44825;53.200;6.448;2023-07-22T11:58:35;12.25;;;7.07;;
59040;SDS011;44825;53.200;6.448;2023-07-22T12:01:02;13.88;;;7.38;;
59040;SDS011;44825;53.200;6.448;2023-07-22T12:03:34;11.18;;;7.50;;
59040;SDS011;44825;53.200;6.448;2023-07-22T12:06:03;11.63;;;7.65;;
59040;SDS011;44825;53.200;6.448;2023-07-22T12:08:32;13.90;;;8.20;;
59040;SDS011;44825;53.200;6.448;2023-07-22T12:10:58;13.02;;;8.32;;
59040;SDS011;44825;53.200;6.448;2023-07-22T12:13:25;16.27;;;9.00;;
59040;SDS011;44825;53.200;6.448;2023-07-22T12:16:03;11.25;;;7.95;;
59040;SDS011;44825;53.200;6.448;2023-07-22T12:18:45;11.77;;;8.23;;
59040;SDS011;44825;53.200;6.448;2023-07-22T12:21:11;14.13;;;9.18;;
59040;SDS011;44825;53.200;6.448;2023-07-22T12:23:38;12.70;;;9.07;;
59040;SDS011;44825;53.200;6.448;2023-07-22T12:26:04;14.85;;;10.23;;
59040;SDS011;44825;53.200;6.448;2023-07-22T12:28:31;12.82;;;9.30;;
59040;SDS011;44825;53.200;6.448;2023-07-22T12:30:58;13.13;;;9.95;;
59040;SDS011;44825;53.200;6.448;2023-07-22T12:33:24;12.23;;;8.88;;
59040;SDS011;44825;53.200;6.448;2023-07-22T12:35:51;12.52;;;9.43;;
59040;SDS011;44825;53.200;6.448;2023-07-22T12:38:17;14.20;;;9.80;;
59040;SDS011;44825;53.200;6.448;2023-07-22T12:40:43;12.88;;;9.50;;
59040;SDS011;44825;53.200;6.448;2023-07-22T12:43:09;14.05;;;9.13;;
59040;SDS011;44825;53.200;6.448;2023-07-22T12:45:35;14.82;;;9.85;;
59040;SDS011;44825;53.200;6.448;2023-07-22T12:48:01;15.52;;;10.93;;
59040;SDS011;44825;53.200;6.448;2023-07-22T12:50:29;13.90;;;9.73;;
59040;SDS011;44825;53.200;6.448;2023-07-22T12:52:55;15.00;;;10.52;;
59040;SDS011;44825;53.200;6.448;2023-07-22T12:55:22;18.10;;;10.70;;
59040;SDS011;44825;53.200;6.448;2023-07-22T12:57:48;16.17;;;9.80;;
59040;SDS011;44825;53.200;6.448;2023-07-22T13:00:14;13.73;;;9.30;;
59040;SDS011;44825;53.200;6.448;2023-07-22T13:02:40;15.90;;;10.18;;
59040;SDS011;44825;53.200;6.448;2023-07-22T13:05:06;15.00;;;11.10;;
59040;SDS011;44825;53.200;6.448;2023-07-22T13:07:32;16.13;;;10.95;;
59040;SDS011;44825;53.200;6.448;2023-07-22T13:09:58;17.52;;;12.73;;
59040;SDS011;44825;53.200;6.448;2023-07-22T13:12:27;17.08;;;12.27;;
59040;SDS011;44825;53.200;6.448;2023-07-22T13:14:53;15.30;;;11.20;;
59040;SDS011;44825;53.200;6.448;2023-07-22T13:17:19;16.88;;;11.98;;
59040;SDS011;44825;53.200;6.448;2023-07-22T13:19:45;15.45;;;11.13;;
59040;SDS011;44825;53.200;6.448;2023-07-22T13:22:12;16.00;;;10.48;;
59040;SDS011;44825;53.200;6.448;2023-07-22T13:24:38;14.52;;;10.13;;
59040;SDS011;44825;53.200;6.448;2023-07-22T13:27:04;16.60;;;10.50;;
59040;SDS011;44825;53.200;6.448;2023-07-22T13:29:30;16.23;;;11.00;;
59040;SDS011;44825;53.200;6.448;2023-07-22T13:31:56;13.70;;;10.10;;
59040;SDS011;44825;53.200;6.448;2023-07-22T13:34:22;14.73;;;10.57;;
59040;SDS011;44825;53.200;6.448;2023-07-22T13:36:48;14.73;;;11.25;;
59040;SDS011;44825;53.200;6.448;2023-07-22T13:39:14;13.52;;;9.00;;
59040;SDS011;44825;53.200;6.448;2023-07-22T13:41:40;15.38;;;11.63;;
59040;SDS011;44825;53.200;6.448;2023-07-22T13:44:07;16.65;;;11.20;;
59040;SDS011;44825;53.200;6.448;2023-07-22T13:46:33;15.65;;;12.48;;
59040;SDS011;44825;53.200;6.448;2023-07-22T13:48:59;15.02;;;12.70;;
59040;SDS011;44825;53.200;6.448;2023-07-22T13:51:25;14.35;;;11.18;;
59040;SDS011;44825;53.200;6.448;2023-07-22T13:53:51;13.68;;;11.35;;
59040;SDS011;44825;53.200;6.448;2023-07-22T13:56:17;14.65;;;11.52;;
59040;SDS011;44825;53.200;6.448;2023-07-22T13:58:43;18.35;;;12.38;;
59040;SDS011;44825;53.200;6.448;2023-07-22T14:01:09;16.02;;;11.48;;
59040;SDS011;44825;53.200;6.448;2023-07-22T14:03:35;17.38;;;11.25;;
59040;SDS011;44825;53.200;6.448;2023-07-22T14:06:01;13.00;;;10.68;;
59040;SDS011;44825;53.200;6.448;2023-07-22T14:08:28;14.23;;;10.75;;
59040;SDS011;44825;53.200;6.448;2023-07-22T14:10:54;13.95;;;11.65;;
59040;SDS011;44825;53.200;6.448;2023-07-22T14:13:20;14.75;;;11.65;;
59040;SDS011;44825;53.200;6.448;2023-07-22T14:15:46;20.30;;;11.18;;
59040;SDS011;44825;53.200;6.448;2023-07-22T14:18:12;13.18;;;10.60;;
59040;SDS011;44825;53.200;6.448;2023-07-22T14:20:42;14.65;;;11.20;;
59040;SDS011;44825;53.200;6.448;2023-07-22T14:23:08;15.82;;;10.93;;
59040;SDS011;44825;53.200;6.448;2023-07-22T14:25:34;15.05;;;11.65;;
59040;SDS011;44825;53.200;6.448;2023-07-22T14:28:00;14.02;;;11.32;;
59040;SDS011;44825;53.200;6.448;2023-07-22T14:30:26;15.45;;;10.95;;
59040;SDS011;44825;53.200;6.448;2023-07-22T14:32:52;18.25;;;11.07;;
59040;SDS011;44825;53.200;6.448;2023-07-22T14:35:19;14.10;;;11.38;;
59040;SDS011;44825;53.200;6.448;2023-07-22T14:37:45;14.80;;;11.43;;
59040;SDS011;44825;53.200;6.448;2023-07-22T14:40:11;12.43;;;10.38;;
59040;SDS011;44825;53.200;6.448;2023-07-22T14:42:44;16.38;;;10.00;;
59040;SDS011;44825;53.200;6.448;2023-07-22T14:45:10;11.15;;;8.55;;
59040;SDS011;44825;53.200;6.448;2023-07-22T14:47:36;14.82;;;9.55;;